createdAt,value
2023-07-10T00:01:01.279Z,102106.97
2023-07-10T00:03:30.343Z,102097.63
2023-07-10T00:06:01.376Z,102113.19
2023-07-10T00:08:28.702Z,102116.41
2023-07-10T00:10:55.823Z,102124.47
2023-07-10T00:13:23.380Z,102118.25
2023-07-10T00:15:57.321Z,102126.28
2023-07-10T00:18:24.636Z,102111.38
2023-07-10T00:20:51.988Z,102112.38
2023-07-10T00:23:19.092Z,102099.47
2023-07-10T00:25:45.992Z,102100.47
2023-07-10T00:28:18.965Z,102105.81
2023-07-10T00:30:47.217Z,102109.50
2023-07-10T00:33:16.273Z,102109.81
2023-07-10T00:35:43.764Z,102117.69
2023-07-10T00:38:24.976Z,102121.91
2023-07-10T00:40:51.939Z,102118.22
2023-07-10T00:43:24.806Z,102108.19
2023-07-10T00:45:53.142Z,102106.34
2023-07-10T00:48:42.295Z,102107.00
2023-07-10T00:51:37.543Z,102106.16
2023-07-10T00:54:07.221Z,102104.50
2023-07-10T00:56:47.059Z,102099.47
2023-07-10T00:59:23.600Z,102106.13
2023-07-10T01:02:08.903Z,102106.75
2023-07-10T01:04:37.106Z,102101.72
2023-07-10T01:07:04.213Z,102096.47
2023-07-10T01:09:31.090Z,102104.81
2023-07-10T01:12:00.852Z,102104.13
2023-07-10T01:14:27.607Z,102101.63
2023-07-10T01:16:54.382Z,102101.09
2023-07-10T01:19:24.400Z,102097.56
2023-07-10T01:21:52.161Z,102095.19
2023-07-10T01:24:19.016Z,102094.81
2023-07-10T01:26:45.900Z,102102.66
2023-07-10T01:29:28.492Z,102099.00
2023-07-10T01:31:56.919Z,102090.41
2023-07-10T01:34:31.642Z,102096.91
2023-07-10T01:36:58.466Z,102087.66
2023-07-10T01:39:35.428Z,102095.34
2023-07-10T01:42:02.821Z,102096.25
2023-07-10T01:44:38.707Z,102104.06
2023-07-10T01:47:09.050Z,102109.16
2023-07-10T01:49:43.522Z,102112.13
2023-07-10T01:52:12.291Z,102121.00
2023-07-10T01:54:40.023Z,102112.28
2023-07-10T01:57:08.501Z,102108.91
2023-07-10T01:59:35.232Z,102094.03
2023-07-10T02:02:03.332Z,102104.03
2023-07-10T02:04:30.256Z,102101.81
2023-07-10T02:06:57.083Z,102117.31
2023-07-10T02:09:25.238Z,102105.41
2023-07-10T02:11:52.545Z,102111.91
2023-07-10T02:14:19.600Z,102111.34
2023-07-10T02:16:46.700Z,102105.16
2023-07-10T02:19:14.066Z,102115.47
2023-07-10T02:21:41.666Z,102118.44
2023-07-10T02:24:08.670Z,102118.44
2023-07-10T02:26:35.639Z,102111.44
2023-07-10T02:29:02.769Z,102119.28
2023-07-10T02:31:30.276Z,102120.13
2023-07-10T02:33:57.347Z,102119.28
2023-07-10T02:36:25.433Z,102113.63
2023-07-10T02:38:52.256Z,102105.47
2023-07-10T02:41:19.436Z,102104.63
2023-07-10T02:43:46.160Z,102104.47
2023-07-10T02:46:13.073Z,102107.44
2023-07-10T02:48:39.802Z,102113.94
2023-07-10T02:51:06.999Z,102106.38
2023-07-10T02:53:34.144Z,102114.69
2023-07-10T02:56:01.456Z,102115.44
2023-07-10T02:58:28.476Z,102113.53
2023-07-10T03:00:57.073Z,102116.78
2023-07-10T03:03:24.574Z,102115.56
2023-07-10T03:05:59.798Z,102112.47
2023-07-10T03:08:27.497Z,102117.56
2023-07-10T03:11:07.656Z,102127.31
2023-07-10T03:13:35.195Z,102125.19
2023-07-10T03:16:06.532Z,102121.97
2023-07-10T03:18:33.955Z,102128.59
2023-07-10T03:21:00.797Z,102126.50
2023-07-10T03:23:27.938Z,102129.75
2023-07-10T03:25:54.771Z,102122.47
2023-07-10T03:28:21.835Z,102137.50
2023-07-10T03:30:48.780Z,102136.00
2023-07-10T03:33:17.552Z,102143.59
2023-07-10T03:35:50.110Z,102146.53
2023-07-10T03:38:17.847Z,102145.84
2023-07-10T03:40:52.487Z,102145.56
2023-07-10T03:43:19.278Z,102143.19
2023-07-10T03:45:46.101Z,102150.91
2023-07-10T03:48:12.862Z,102146.28
2023-07-10T03:50:43.154Z,102149.50
2023-07-10T03:53:10.148Z,102160.47
2023-07-10T03:55:36.967Z,102162.28
2023-07-10T03:58:16.917Z,102163.84
2023-07-10T04:00:43.803Z,102165.94
2023-07-10T04:03:11.475Z,102163.81
2023-07-10T04:05:38.472Z,102158.91
2023-07-10T04:08:05.657Z,102166.50
2023-07-10T04:10:33.685Z,102163.56
2023-07-10T04:13:00.658Z,102167.78
2023-07-10T04:15:30.414Z,102168.31
2023-07-10T04:17:57.227Z,102170.44
2023-07-10T04:20:24.328Z,102170.53
2023-07-10T04:22:51.010Z,102173.22
2023-07-10T04:25:17.784Z,102175.28
2023-07-10T04:27:44.688Z,102189.22
2023-07-10T04:30:16.517Z,102181.91
2023-07-10T04:32:43.428Z,102178.25
2023-07-10T04:35:10.069Z,102192.03
2023-07-10T04:37:36.735Z,102189.75
2023-07-10T04:40:03.462Z,102187.06
2023-07-10T04:42:31.084Z,102186.94
2023-07-10T04:50:29.962Z,102186.25
2023-07-10T04:52:59.906Z,102184.53
2023-07-10T04:55:26.645Z,102183.88
2023-07-10T04:57:53.339Z,102176.13
2023-07-10T05:00:20.430Z,102180.19
2023-07-10T05:02:47.961Z,102182.38
2023-07-10T05:05:14.989Z,102180.28
2023-07-10T05:07:41.628Z,102180.16
2023-07-10T05:10:08.738Z,102187.81
2023-07-10T05:12:35.303Z,102180.75
2023-07-10T05:15:01.870Z,102184.47
2023-07-10T05:17:28.760Z,102186.72
2023-07-10T05:19:55.556Z,102183.69
2023-07-10T05:22:30.552Z,102190.03
2023-07-10T05:24:57.487Z,102193.31
2023-07-10T05:27:24.135Z,102187.94
2023-07-10T05:29:50.930Z,102184.38
2023-07-10T05:32:17.966Z,102184.09
2023-07-10T05:34:44.681Z,102185.88
2023-07-10T05:37:11.780Z,102181.06
2023-07-10T05:39:38.451Z,102189.19
2023-07-10T05:42:05.763Z,102187.78
2023-07-10T05:44:32.366Z,102187.81
2023-07-10T05:46:59.033Z,102190.91
2023-07-10T05:49:26.090Z,102195.25
2023-07-10T05:51:53.925Z,102192.22
2023-07-10T05:54:22.994Z,102197.22
2023-07-10T05:56:50.866Z,102197.06
2023-07-10T05:59:22.850Z,102194.88
2023-07-10T06:01:50.620Z,102191.88
2023-07-10T06:04:17.502Z,102191.22
2023-07-10T06:06:46.001Z,102194.94
2023-07-10T06:09:16.220Z,102192.75
2023-07-10T06:11:42.859Z,102192.25
2023-07-10T06:14:09.497Z,102190.53
2023-07-10T06:16:36.285Z,102199.94
2023-07-10T06:19:03.040Z,102193.75
2023-07-10T06:21:29.674Z,102203.19
2023-07-10T06:23:56.563Z,102210.75
2023-07-10T06:26:23.258Z,102203.66
2023-07-10T06:28:50.789Z,102206.03
2023-07-10T06:31:18.542Z,102210.41
2023-07-10T06:33:45.115Z,102207.22
2023-07-10T06:36:11.817Z,102218.97
2023-07-10T06:38:38.479Z,102211.06
2023-07-10T06:41:07.665Z,102213.22
2023-07-10T06:43:34.682Z,102213.06
2023-07-10T06:46:01.422Z,102206.63
2023-07-10T06:48:28.358Z,102209.28
2023-07-10T06:50:57.000Z,102216.41
2023-07-10T06:53:27.684Z,102214.13
2023-07-10T06:56:00.326Z,102224.91
2023-07-10T06:58:28.306Z,102232.41
2023-07-10T07:00:55.773Z,102235.03
2023-07-10T07:03:23.269Z,102235.47
2023-07-10T07:05:50.218Z,102235.31
2023-07-10T07:08:20.804Z,102230.47
2023-07-10T07:10:49.298Z,102243.06
2023-07-10T07:13:16.542Z,102246.19
2023-07-10T07:15:43.855Z,102253.63
2023-07-10T07:18:10.730Z,102247.47
2023-07-10T07:20:37.252Z,102242.88
2023-07-10T07:23:03.840Z,102249.16
2023-07-10T07:25:31.332Z,102233.72
2023-07-10T07:28:01.393Z,102239.63
2023-07-10T07:30:32.360Z,102245.19
2023-07-10T07:32:59.756Z,102237.72
2023-07-10T07:35:26.908Z,102240.94
2023-07-10T07:37:54.259Z,102244.78
2023-07-10T07:40:21.087Z,102239.00
2023-07-10T07:42:48.390Z,102241.00
2023-07-10T07:45:16.142Z,102241.78
2023-07-10T07:47:43.116Z,102243.16
2023-07-10T07:50:10.513Z,102246.16
2023-07-10T07:52:37.549Z,102255.63
2023-07-10T07:55:10.190Z,102251.44
2023-07-10T07:57:39.245Z,102251.88
2023-07-10T08:00:08.089Z,102255.72
2023-07-10T08:02:34.967Z,102249.56
2023-07-10T08:05:02.951Z,102244.63
2023-07-10T08:07:29.736Z,102248.00
2023-07-10T08:09:56.415Z,102241.75
2023-07-10T08:12:24.559Z,102227.06
2023-07-10T08:14:51.205Z,102233.75
2023-07-10T08:17:17.671Z,102233.25
2023-07-10T08:19:44.322Z,102241.63
2023-07-10T08:22:10.857Z,102233.47
2023-07-10T08:24:37.463Z,102232.69
2023-07-10T08:27:04.369Z,102230.56
2023-07-10T08:29:35.390Z,102222.53
2023-07-10T08:32:02.809Z,102233.34
2023-07-10T08:34:31.590Z,102226.06
2023-07-10T08:37:02.795Z,102224.41
2023-07-10T08:39:29.466Z,102214.75
2023-07-10T08:42:01.514Z,102228.25
2023-07-10T08:44:39.100Z,102230.44
2023-07-10T08:47:17.213Z,102236.88
2023-07-10T08:49:55.782Z,102240.66
2023-07-10T08:52:45.363Z,102238.22
2023-07-10T08:55:13.949Z,102239.19
2023-07-10T08:57:49.029Z,102230.56
2023-07-10T09:00:16.628Z,102233.88
2023-07-10T09:02:46.642Z,102237.34
2023-07-10T09:05:28.175Z,102232.84
2023-07-10T09:07:56.858Z,102233.16
2023-07-10T09:10:32.750Z,102233.78
2023-07-10T09:13:04.635Z,102239.53
2023-07-10T09:15:37.576Z,102246.56
2023-07-10T09:18:25.551Z,102250.34
2023-07-10T09:20:58.557Z,102253.63
2023-07-10T09:23:29.491Z,102250.97
2023-07-10T09:25:58.384Z,102249.19
2023-07-10T09:28:26.096Z,102246.44
2023-07-10T09:31:20.469Z,102249.00
2023-07-10T09:34:00.432Z,102244.03
2023-07-10T09:36:28.740Z,102250.28
2023-07-10T09:38:58.106Z,102255.53
2023-07-10T09:41:29.878Z,102255.50
2023-07-10T09:43:59.915Z,102256.88
2023-07-10T09:46:36.924Z,102253.72
2023-07-10T09:49:13.371Z,102259.19
2023-07-10T09:52:02.079Z,102256.53
2023-07-10T09:54:40.366Z,102245.81
2023-07-10T09:57:19.347Z,102247.50
2023-07-10T09:59:54.730Z,102237.63
2023-07-10T10:02:34.193Z,102239.91
2023-07-10T10:05:30.447Z,102243.66
2023-07-10T10:08:19.954Z,102243.31
2023-07-10T10:11:09.691Z,102231.53
2023-07-10T10:13:58.020Z,102238.69
2023-07-10T10:16:30.964Z,102243.66
2023-07-10T10:19:20.567Z,102244.63
2023-07-10T10:21:47.648Z,102248.84
2023-07-10T10:24:14.917Z,102233.19
2023-07-10T10:26:44.407Z,102238.19
2023-07-10T10:29:58.663Z,102243.41
2023-07-10T10:32:45.032Z,102239.72
2023-07-10T10:35:38.540Z,102247.63
2023-07-10T10:38:18.967Z,102239.06
2023-07-10T10:41:45.207Z,102236.16
2023-07-10T10:44:14.497Z,102240.94
2023-07-10T10:47:31.172Z,102241.81
2023-07-10T10:50:30.239Z,102243.28
2023-07-10T10:53:17.475Z,102248.91
2023-07-10T10:56:03.507Z,102247.03
2023-07-10T10:58:56.709Z,102252.66
2023-07-10T11:01:42.413Z,102261.66
2023-07-10T11:04:15.027Z,102254.72
2023-07-10T11:06:54.352Z,102258.84
2023-07-10T11:09:32.847Z,102258.72
2023-07-10T11:12:01.244Z,102258.78
2023-07-10T11:14:29.180Z,102244.09
2023-07-10T11:16:59.378Z,102247.84
2023-07-10T11:19:29.643Z,102243.66
2023-07-10T11:21:56.512Z,102248.50
2023-07-10T11:24:26.121Z,102235.03
2023-07-10T11:26:54.757Z,102252.25
2023-07-10T11:29:37.645Z,102244.84
2023-07-10T11:32:15.400Z,102236.13
2023-07-10T11:35:21.926Z,102240.66
2023-07-10T11:37:48.690Z,102237.63
2023-07-10T11:40:46.066Z,102239.81
2023-07-10T11:43:40.029Z,102236.06
2023-07-10T11:46:18.908Z,102234.50
2023-07-10T11:49:09.861Z,102231.78
2023-07-10T11:51:36.539Z,102234.03
2023-07-10T11:54:06.470Z,102231.13
2023-07-10T11:56:34.184Z,102227.16
2023-07-10T11:59:01.693Z,102226.59
2023-07-10T12:01:28.611Z,102229.47
2023-07-10T12:03:56.730Z,102225.97
2023-07-10T12:06:25.826Z,102233.22
2023-07-10T12:08:54.399Z,102231.78
2023-07-10T12:11:37.243Z,102234.91
2023-07-10T12:14:25.417Z,102235.97
2023-07-10T12:17:25.790Z,102217.94
2023-07-10T12:19:46.363Z,102222.50
2023-07-10T12:22:23.598Z,102224.38
2023-07-10T12:24:53.500Z,102228.41
2023-07-10T12:29:55.436Z,102221.94
2023-07-10T12:32:25.544Z,102218.69
2023-07-10T12:34:54.813Z,102216.50
2023-07-10T12:37:22.224Z,102213.50
2023-07-10T12:39:52.209Z,102217.56
2023-07-10T12:42:37.658Z,102220.53
2023-07-10T12:45:16.336Z,102216.50
2023-07-10T12:50:35.236Z,102216.75
2023-07-10T12:53:05.838Z,102210.53
2023-07-10T12:55:33.257Z,102202.03
2023-07-10T12:58:01.932Z,102208.63
2023-07-10T13:01:01.811Z,102208.13
2023-07-10T13:03:37.726Z,102206.59
2023-07-10T13:06:08.607Z,102208.38
2023-07-10T13:08:41.830Z,102209.38
2023-07-10T13:11:35.795Z,102209.41
2023-07-10T13:16:44.164Z,102200.28
2023-07-10T13:19:10.764Z,102194.91
2023-07-10T13:21:37.341Z,102200.84
2023-07-10T13:24:04.176Z,102206.91
2023-07-10T13:26:30.774Z,102196.63
2023-07-10T13:28:57.291Z,102206.56
2023-07-10T13:31:29.367Z,102190.38
2023-07-10T13:33:56.062Z,102190.84
2023-07-10T13:36:25.806Z,102179.44
2023-07-10T13:38:53.573Z,102193.84
2023-07-10T13:41:25.325Z,102189.22
2023-07-10T13:43:53.844Z,102194.72
2023-07-10T13:46:28.119Z,102200.06
2023-07-10T13:48:57.548Z,102200.13
2023-07-10T13:51:27.041Z,102193.84
2023-07-10T13:53:54.676Z,102205.19
2023-07-10T13:56:28.807Z,102191.94
2023-07-10T13:58:56.190Z,102191.28
2023-07-10T14:01:24.691Z,102186.22
2023-07-10T14:03:51.786Z,102187.75
2023-07-10T14:06:36.256Z,102193.00
2023-07-10T14:09:16.722Z,102184.22
2023-07-10T14:11:43.758Z,102180.94
2023-07-10T14:14:18.980Z,102181.50
2023-07-10T14:16:47.032Z,102176.31
2023-07-10T14:19:18.540Z,102174.19
2023-07-10T14:21:47.280Z,102167.94
2023-07-10T14:24:14.378Z,102171.88
2023-07-10T14:26:41.174Z,102171.22
2023-07-10T14:29:09.213Z,102165.06
2023-07-10T14:31:35.910Z,102166.00
2023-07-10T14:34:02.596Z,102152.88
2023-07-10T14:36:29.374Z,102157.09
2023-07-10T14:38:56.077Z,102157.28
2023-07-10T14:41:25.384Z,102159.00
2023-07-10T14:43:53.146Z,102154.44
2023-07-10T14:46:31.857Z,102153.84
2023-07-10T14:49:05.169Z,102149.69
2023-07-10T14:51:31.813Z,102147.25
2023-07-10T14:53:59.371Z,102156.06
2023-07-10T14:56:25.936Z,102162.09
2023-07-10T14:58:52.484Z,102157.69
2023-07-10T15:01:19.389Z,102153.03
2023-07-10T15:03:47.771Z,102147.78
2023-07-10T15:06:28.474Z,102149.94
2023-07-10T15:08:55.403Z,102142.81
2023-07-10T15:11:23.583Z,102139.47
2023-07-10T15:13:50.852Z,102149.75
2023-07-10T15:16:20.300Z,102139.13
2023-07-10T15:18:48.027Z,102128.56
2023-07-10T15:21:17.296Z,102121.81
2023-07-10T15:23:44.174Z,102120.91
2023-07-10T15:26:11.303Z,102125.41
2023-07-10T15:28:38.083Z,102122.59
2023-07-10T15:31:07.398Z,102111.88
2023-07-10T15:33:37.633Z,102105.31
2023-07-10T15:36:05.557Z,102102.09
2023-07-10T15:38:37.631Z,102102.03
2023-07-10T15:41:18.577Z,102094.31
2023-07-10T15:43:46.705Z,102096.66
2023-07-10T15:46:13.450Z,102092.69
2023-07-10T15:48:40.930Z,102095.16
2023-07-10T15:51:20.252Z,102092.88
2023-07-10T15:53:46.832Z,102097.88
2023-07-10T15:56:13.385Z,102094.59
2023-07-10T15:58:40.257Z,102088.34
2023-07-10T16:01:13.570Z,102091.47
2023-07-10T16:03:40.225Z,102088.66
2023-07-10T16:06:06.932Z,102086.19
2023-07-10T16:08:37.051Z,102070.69
2023-07-10T16:11:09.945Z,102074.00
2023-07-10T16:13:37.085Z,102082.81
2023-07-10T16:18:44.496Z,102067.06
2023-07-10T16:21:14.537Z,102061.81
2023-07-10T16:23:41.238Z,102060.00
2023-07-10T16:26:08.279Z,102054.84
2023-07-10T16:28:35.054Z,102055.97
2023-07-10T16:31:01.722Z,102049.94
2023-07-10T16:33:30.660Z,102051.78
2023-07-10T16:35:58.127Z,102048.91
2023-07-10T16:38:26.412Z,102036.22
2023-07-10T16:40:56.129Z,102037.91
2023-07-10T16:43:34.230Z,102044.81
2023-07-10T16:46:01.859Z,102036.66
2023-07-10T16:48:29.891Z,102036.03
2023-07-10T16:51:01.854Z,102041.09
2023-07-10T16:53:32.812Z,102031.31
2023-07-10T16:56:03.005Z,102030.94
2023-07-10T16:58:31.922Z,102023.97
2023-07-10T17:00:59.848Z,102024.19
2023-07-10T17:03:33.315Z,102027.53
2023-07-10T17:06:01.186Z,102025.03
2023-07-10T17:08:29.310Z,102016.31
2023-07-10T17:10:59.754Z,102014.44
2023-07-10T17:13:30.505Z,102020.28
2023-07-10T17:15:58.024Z,102013.59
2023-07-10T17:18:27.682Z,102007.94
2023-07-10T17:20:56.936Z,102007.38
2023-07-10T17:23:29.017Z,102010.09
2023-07-10T17:25:56.585Z,102006.13
2023-07-10T17:28:26.639Z,102008.41
2023-07-10T17:30:55.683Z,102001.78
2023-07-10T17:33:31.923Z,102004.91
2023-07-10T17:35:59.009Z,102010.13
2023-07-10T17:38:28.675Z,102006.78
2023-07-10T17:40:55.313Z,102001.16
2023-07-10T17:43:22.029Z,102009.06
2023-07-10T17:45:48.757Z,102002.00
2023-07-10T17:48:20.465Z,101996.34
2023-07-10T17:50:48.076Z,101995.78
2023-07-10T17:53:16.826Z,101999.13
2023-07-10T17:55:48.429Z,101999.94
2023-07-10T17:58:18.011Z,101993.47
2023-07-10T18:00:46.999Z,101995.19
2023-07-10T18:03:15.538Z,101996.81
2023-07-10T18:05:44.305Z,101998.06
2023-07-10T18:08:28.039Z,101992.66
2023-07-10T18:11:02.556Z,101988.25
2023-07-10T18:13:37.063Z,101998.06
2023-07-10T18:16:06.832Z,101995.50
2023-07-10T18:18:38.098Z,101995.00
2023-07-10T18:21:25.163Z,101995.22
2023-07-10T18:23:52.127Z,101989.72
2023-07-10T18:26:21.057Z,101991.09
2023-07-10T18:28:49.951Z,101990.84
2023-07-10T18:31:25.410Z,101987.03
2023-07-10T18:33:53.747Z,101989.28
2023-07-10T18:36:21.368Z,101986.19
2023-07-10T18:38:48.207Z,101983.63
2023-07-10T18:41:26.825Z,101981.13
2023-07-10T18:43:55.484Z,101980.06
2023-07-10T18:46:24.657Z,101971.44
2023-07-10T18:48:53.336Z,101974.66
2023-07-10T18:51:27.603Z,101976.81
2023-07-10T18:53:57.560Z,101973.16
2023-07-10T18:56:24.316Z,101964.94
2023-07-10T18:58:50.996Z,101968.88
2023-07-10T19:01:21.647Z,101969.69
2023-07-10T19:03:53.807Z,101966.53
2023-07-10T19:06:25.630Z,101964.91
2023-07-10T19:08:52.119Z,101955.25
2023-07-10T19:11:19.465Z,101958.84
2023-07-10T19:13:47.272Z,101959.94
2023-07-10T19:16:22.464Z,101961.63
2023-07-10T19:18:59.787Z,101954.28
2023-07-10T19:21:28.124Z,101948.38
2023-07-10T19:23:54.784Z,101948.28
2023-07-10T19:26:23.858Z,101935.09
2023-07-10T19:28:51.259Z,101933.16
2023-07-10T19:31:21.545Z,101933.44
2023-07-10T19:33:50.638Z,101939.13
2023-07-10T19:36:28.648Z,101929.16
2023-07-10T19:38:56.375Z,101936.13
2023-07-10T19:41:24.499Z,101936.88
2023-07-10T19:43:51.330Z,101936.09
2023-07-10T19:46:20.841Z,101931.66
2023-07-10T19:48:48.110Z,101940.38
2023-07-10T19:51:15.307Z,101934.78
2023-07-10T19:53:42.346Z,101929.47
2023-07-10T19:56:18.636Z,101927.13
2023-07-10T19:58:51.260Z,101923.34
2023-07-10T20:01:19.621Z,101925.91
2023-07-10T20:03:47.349Z,101929.47
2023-07-10T20:06:32.789Z,101931.22
2023-07-10T20:09:03.644Z,101924.88
2023-07-10T20:11:30.542Z,101927.28
2023-07-10T20:13:57.208Z,101921.59
2023-07-10T20:16:26.922Z,101915.78
2023-07-10T20:18:54.939Z,101910.97
2023-07-10T20:21:22.987Z,101912.56
2023-07-10T20:23:52.087Z,101906.19
2023-07-10T20:26:22.078Z,101908.59
2023-07-10T20:28:49.417Z,101904.59
2023-07-10T20:31:19.426Z,101901.56
2023-07-10T20:33:47.861Z,101902.25
2023-07-10T20:36:17.710Z,101900.75
2023-07-10T20:38:46.890Z,101895.25
2023-07-10T20:41:16.996Z,101897.25
2023-07-10T20:43:47.343Z,101898.63
2023-07-10T20:46:17.863Z,101900.69
2023-07-10T20:48:44.969Z,101903.59
2023-07-10T20:51:25.164Z,101892.34
2023-07-10T20:53:56.963Z,101891.69
2023-07-10T20:56:31.692Z,101893.38
2023-07-10T20:59:02.063Z,101890.69
2023-07-10T21:01:30.845Z,101881.50
2023-07-10T21:03:58.862Z,101885.53
2023-07-10T21:06:31.413Z,101880.84
2023-07-10T21:09:00.048Z,101876.34
2023-07-10T21:11:29.282Z,101880.19
2023-07-10T21:13:56.804Z,101869.97
2023-07-10T21:16:31.707Z,101869.44
2023-07-10T21:19:05.093Z,101866.28
2023-07-10T21:21:31.902Z,101870.31
2023-07-10T21:23:58.737Z,101872.16
2023-07-10T21:26:40.722Z,101865.47
2023-07-10T21:29:14.141Z,101870.03
2023-07-10T21:31:40.903Z,101866.66
2023-07-10T21:34:13.405Z,101864.97
2023-07-10T21:36:41.117Z,101857.94
2023-07-10T21:39:08.650Z,101863.47
2023-07-10T21:41:40.903Z,101859.94
2023-07-10T21:44:14.092Z,101863.81
2023-07-10T21:47:00.095Z,101860.81
2023-07-10T21:49:27.106Z,101855.75
2023-07-10T21:51:53.790Z,101855.63
2023-07-10T21:54:20.630Z,101848.56
2023-07-10T21:56:48.107Z,101847.06
2023-07-10T21:59:21.479Z,101856.28
2023-07-10T22:01:49.837Z,101849.38
2023-07-10T22:04:18.096Z,101853.44
2023-07-10T22:06:46.399Z,101843.88
2023-07-10T22:09:14.901Z,101847.22
2023-07-10T22:11:43.521Z,101847.22
2023-07-10T22:14:15.081Z,101843.16
2023-07-10T22:16:44.670Z,101844.66
2023-07-10T22:19:13.168Z,101839.28
2023-07-10T22:21:41.188Z,101837.09
2023-07-10T22:24:15.767Z,101835.59
2023-07-10T22:26:42.440Z,101832.22
2023-07-10T22:29:09.509Z,101832.31
2023-07-10T22:31:41.358Z,101827.97
2023-07-10T22:34:08.575Z,101826.75
2023-07-10T22:36:35.469Z,101827.91
2023-07-10T22:39:02.303Z,101822.50
2023-07-10T22:41:33.989Z,101820.31
2023-07-10T22:44:08.393Z,101824.44
2023-07-10T22:46:39.428Z,101829.94
2023-07-10T22:49:08.468Z,101814.03
2023-07-10T22:51:38.691Z,101818.72
2023-07-10T22:54:05.749Z,101810.16
2023-07-10T22:56:35.499Z,101812.03
2023-07-10T22:59:03.083Z,101811.00
2023-07-10T23:01:30.409Z,101804.34
2023-07-10T23:03:57.350Z,101805.84
2023-07-10T23:06:32.783Z,101802.34
2023-07-10T23:09:00.188Z,101798.38
2023-07-10T23:11:27.539Z,101798.91
2023-07-10T23:13:54.265Z,101790.72
2023-07-10T23:16:24.968Z,101789.69
2023-07-10T23:18:57.988Z,101787.00
2023-07-10T23:21:26.518Z,101783.34
2023-07-10T23:23:54.260Z,101786.00
2023-07-10T23:26:22.626Z,101788.69
2023-07-10T23:28:50.123Z,101790.88
2023-07-10T23:31:23.314Z,101789.50
2023-07-10T23:33:51.004Z,101788.75
2023-07-10T23:36:19.182Z,101780.38
2023-07-10T23:38:46.735Z,101782.38
2023-07-10T23:41:14.014Z,101777.50
2023-07-10T23:43:42.298Z,101776.81
2023-07-10T23:46:13.083Z,101778.78
2023-07-10T23:48:41.238Z,101776.25
2023-07-10T23:51:08.044Z,101772.28
2023-07-10T23:53:34.965Z,101767.94
2023-07-10T23:56:04.877Z,101759.59
2023-07-10T23:58:31.872Z,101758.25
